Weersoverzicht van METAR-stations binnen 150 km

EHRD - Rotterdam Airport
Afstand tot weerstation: ZO 28 km
Update: 21-08-2019 19:55
Helder
Helder
 Wind van Variabel
Wind: Variabel 4 km/h
Temperatuur: 19°C
Dauwpunt: 12°C
Luchtvochtigheid: 64%
Luchtdruk: 1026 hPa
Bewolking: Helder
Zicht: 10 km
2019/08/21 17:55 EHRD 211755Z AUTO VRB02KT 9999 NCD 19/12 Q1026 NOSIG
EHSC - Goeree Le Sea (Platform ter hoogte van Zeeland)
Afstand tot weerstation: WZW 36 km
Update: 21-08-2019 19:55

 Wind van Variabel
Wind: Variabel 4 km/h
Temperatuur: 19°C
Dauwpunt: 11°C
Luchtvochtigheid: 60%
Luchtdruk: 1026 hPa
Zicht: 10 km
2019/08/21 17:55 EHSC 211755Z AUTO VRB02KT 9999 ///////// 19/11 Q1026 W20/H4
 
EHAM - A'dam Schiphol
Afstand tot weerstation: ONO 51 km
Update: 21-08-2019 19:55
Helder
Helder
 Wind van WNW
Wind: WNW 7 km/h
Temperatuur: 19°C
Dauwpunt: 12°C
Luchtvochtigheid: 64%
Luchtdruk: 1026 hPa
Overzicht: Helder
Zicht: Meer dan 10 km
2019/08/21 17:55 EHAM 211755Z 29004KT CAVOK 19/12 Q1026 NOSIG
EHSA - Euro Platform (Ter hoogte van Zeeland)
Afstand tot weerstation: W 58 km
Update: 21-08-2019 19:55

 Wind van Z
Wind: Z 4 km/h
Temperatuur: 18°C
Dauwpunt: 12°C
Luchtvochtigheid: 68%
Luchtdruk: 1026 hPa
Zicht: 10 km
2019/08/21 17:55 EHSA 211755Z AUTO 19002KT 9999 ///////// 18/12 Q1026 W17/H4
 
EHPG - P11-B Sea (Platform ter hoogte van Zuid Holland)
Afstand tot weerstation: NW 60 km
Update: 21-08-2019 19:55
Gedeeltelijk bewolkt
Gedeeltelijk bewolkt
 Wind van Variabel
Wind: Variabel 15 km/h
Temperatuur: 18°C
Dauwpunt: 13°C
Luchtvochtigheid: 73%
Luchtdruk: 1026 hPa
Bewolking: Gedeeltelijk bewolkt
Zicht: 10 km
2019/08/21 17:55 EHPG 211755Z AUTO VRB08KT 9999 NSC 18/13 Q1026 W///H///
EHWO - Vliegveld Woensdrecht
Afstand tot weerstation: ZZO 65 km
Update: 21-08-2019 19:55
Helder
Helder
 Wind van ONO
Wind: ONO 7 km/h
Temperatuur: 21°C
Dauwpunt: 11°C
Luchtvochtigheid: 53%
Luchtdruk: 1025 hPa
Bewolking: Helder
Zicht: 10 km
2019/08/21 17:55 EHWO 211755Z AUTO 07004KT 020V080 9999 NCD 21/11 Q1025 BLU
 
EHGR - Vliegveld Gilze-Rijen
Afstand tot weerstation: ZO 79 km
Update: 21-08-2019 19:55
Helder
Helder
 Wind van OZO
Wind: OZO 6 km/h
Temperatuur: 21°C
Dauwpunt: 9°C
Luchtvochtigheid: 46%
Luchtdruk: 1026 hPa
Bewolking: Helder
Zicht: 10 km
2019/08/21 17:55 EHGR 211755Z AUTO 12003KT 080V150 9999 NCD 21/09 Q1026 BLU VRB02KT CAVOK
EHQE - Hoorn-A Sea (Platform ter hoogte van Noord Holland)
Afstand tot weerstation: N 103 km
Update: 21-08-2019 19:55
Gedeeltelijk bewolkt
Gedeeltelijk bewolkt
 Wind van Z
Wind: Z 22 km/h
Temperatuur: 18°C
Dauwpunt: 12°C
Luchtvochtigheid: 68%
Luchtdruk: 1026 hPa
Bewolking: Gedeeltelijk bewolkt
Zicht: 10 km
2019/08/21 17:55 EHQE 211755Z AUTO 17012KT 9999 NSC 18/12 Q1026 W///H///
 
EHKD - Marinebasis De Kooy (Den Helder)
Afstand tot weerstation: NNO 114 km
Update: 21-08-2019 19:55
Helder
Helder
 Wind van WZW
Wind: WZW 11 km/h
Temperatuur: 18°C
Dauwpunt: 12°C
Luchtvochtigheid: 68%
Luchtdruk: 1026 hPa
Bewolking: Helder
Zicht: 10 km
2019/08/21 17:55 EHKD 211755Z AUTO 24006KT 9999 NCD 18/12 Q1026 BLU 240009KT CAVOK
EHEH - Vliegveld Eindhoven
Afstand tot weerstation: OZO 115 km
Update: 21-08-2019 19:55
Helder
Helder
 Wind van OZO
Wind: OZO 6 km/h
Temperatuur: 22°C
Dauwpunt: 8°C
Luchtvochtigheid: 41%
Luchtdruk: 1026 hPa
Bewolking: Helder
Zicht: 10 km
2019/08/21 17:55 EHEH 211755Z AUTO 12003KT 050V150 9999 NCD 22/08 Q1026 BLU VRB04 CAVOK
 
EHVK - Vliegveld Volkel
Afstand tot weerstation: OZO 124 km
Update: 21-08-2019 19:55
Helder
Helder
 Wind van O
Wind: O 7 km/h
Temperatuur: 21°C
Dauwpunt: 8°C
Luchtvochtigheid: 43%
Luchtdruk: 1026 hPa
Bewolking: Helder
Zicht: 10 km
2019/08/21 17:55 EHVK 211755Z AUTO 09004KT 9999 NCD 21/08 Q1026 BLU
EHDL - Vliegveld Deelen
Afstand tot weerstation: O 128 km
Update: 21-08-2019 19:55
Zwaar bewolkt
Zwaar bewolkt
 Wind van OZO
Wind: OZO 7 km/h
Temperatuur: 21°C
Dauwpunt: 9°C
Luchtvochtigheid: 46%
Luchtdruk: 1026 hPa
Bewolking: Zwaar bewolkt
Zicht: 10 km
Details Bewolking: Zwaar bewolkt 6706 m
2019/08/21 17:55 EHDL 211755Z AUTO 12004KT 070V190 9999 OVC220 21/09 Q1026 BLU